createdAt,value
2023-10-07T00:09:00.544Z,26.80
2023-10-07T00:11:13.972Z,26.70
2023-10-07T00:13:22.820Z,26.80
2023-10-07T00:15:31.374Z,26.80
2023-10-07T00:17:41.946Z,26.80
2023-10-07T00:19:49.936Z,26.90
2023-10-07T00:22:01.101Z,26.90
2023-10-07T00:24:11.041Z,26.90
2023-10-07T00:26:19.899Z,27.00
2023-10-07T00:28:34.828Z,27.00
2023-10-07T00:30:43.942Z,27.00
2023-10-07T00:32:53.236Z,27.00
2023-10-07T00:35:02.868Z,27.00
2023-10-07T00:37:10.961Z,27.00
2023-10-07T00:39:24.274Z,27.00
2023-10-07T00:41:39.295Z,27.10
2023-10-07T00:43:47.453Z,27.10
2023-10-07T00:45:56.705Z,27.10
2023-10-07T00:48:07.512Z,27.10
2023-10-07T00:50:15.303Z,27.10
2023-10-07T00:52:35.522Z,27.10
2023-10-07T00:54:59.803Z,27.10
2023-10-07T00:57:10.262Z,27.10
2023-10-07T00:59:17.971Z,27.10
2023-10-07T01:01:25.863Z,27.10
2023-10-07T01:03:49.980Z,27.10
2023-10-07T01:06:12.225Z,27.10
2023-10-07T01:08:22.555Z,27.10
2023-10-07T01:10:33.827Z,27.10
2023-10-07T01:12:40.344Z,27.10
2023-10-07T01:14:49.853Z,27.10
2023-10-07T01:16:57.958Z,27.10
2023-10-07T01:19:21.118Z,27.10
2023-10-07T01:21:35.834Z,27.10
2023-10-07T01:23:47.203Z,27.20
2023-10-07T01:25:55.022Z,27.10
2023-10-07T01:28:05.463Z,27.20
2023-10-07T01:30:18.502Z,27.20
2023-10-07T01:32:29.670Z,27.20
2023-10-07T01:34:39.232Z,27.20
2023-10-07T01:36:47.537Z,27.20
2023-10-07T01:38:57.439Z,27.20
2023-10-07T01:41:09.940Z,27.20
2023-10-07T01:43:16.086Z,27.30
2023-10-07T01:45:36.853Z,27.20
2023-10-07T01:47:44.603Z,27.30
2023-10-07T01:49:55.920Z,27.30
2023-10-07T01:52:05.519Z,27.30
2023-10-07T01:54:14.498Z,27.30
2023-10-07T01:56:22.809Z,27.40
2023-10-07T01:58:30.603Z,27.40
2023-10-07T02:00:45.882Z,27.40
2023-10-07T02:03:02.063Z,27.40
2023-10-07T02:05:14.178Z,27.40
2023-10-07T02:07:21.950Z,27.50
2023-10-07T02:09:31.902Z,27.50
2023-10-07T02:11:42.693Z,27.50
2023-10-07T02:13:50.145Z,27.60
2023-10-07T02:15:58.082Z,27.60
2023-10-07T02:18:06.596Z,27.60
2023-10-07T02:20:25.160Z,27.60
2023-10-07T02:22:33.173Z,27.60
2023-10-07T02:24:43.696Z,27.70
2023-10-07T02:26:56.377Z,27.70
2023-10-07T02:29:09.574Z,27.70
2023-10-07T02:31:20.321Z,27.70
2023-10-07T02:33:30.241Z,27.70
2023-10-07T02:35:39.238Z,27.70
2023-10-07T02:37:51.883Z,27.80
2023-10-07T02:40:19.480Z,27.80
2023-10-07T02:42:30.888Z,27.80
2023-10-07T02:44:37.255Z,27.80
2023-10-07T02:46:45.212Z,27.90
2023-10-07T02:48:51.532Z,27.90
2023-10-07T02:51:09.072Z,27.90
2023-10-07T02:53:17.264Z,28.00
2023-10-07T02:55:41.046Z,28.00
2023-10-07T02:57:49.118Z,28.00
2023-10-07T03:00:02.708Z,28.10
2023-10-07T03:02:39.596Z,28.10
2023-10-07T03:05:02.127Z,28.20
2023-10-07T03:07:16.153Z,28.30
2023-10-07T03:09:27.915Z,28.30
2023-10-07T03:11:51.158Z,28.30
2023-10-07T03:14:01.119Z,28.40
2023-10-07T03:16:27.807Z,28.40
2023-10-07T03:18:35.516Z,28.50
2023-10-07T03:21:01.264Z,28.60
2023-10-07T03:23:20.809Z,28.60
2023-10-07T03:25:36.670Z,28.70
2023-10-07T03:27:52.284Z,28.70
2023-10-07T03:30:18.964Z,28.80
2023-10-07T03:32:26.701Z,28.80
2023-10-07T03:34:34.167Z,28.80
2023-10-07T03:37:09.320Z,28.80
2023-10-07T03:39:25.683Z,28.90
2023-10-07T03:41:36.114Z,28.90
2023-10-07T03:43:45.466Z,28.90
2023-10-07T03:45:53.272Z,28.90
2023-10-07T03:48:12.852Z,28.90
2023-10-07T03:50:36.947Z,29.00
2023-10-07T03:52:44.852Z,29.00
2023-10-07T03:54:53.345Z,29.00
2023-10-07T03:57:03.364Z,29.10
2023-10-07T03:59:17.282Z,29.10
2023-10-07T04:01:28.477Z,29.10
2023-10-07T04:03:37.850Z,29.20
2023-10-07T04:05:51.573Z,29.20
2023-10-07T04:07:59.887Z,29.30
2023-10-07T04:10:18.150Z,29.30
2023-10-07T04:12:28.536Z,29.40
2023-10-07T04:14:40.177Z,29.50
2023-10-07T04:16:50.294Z,29.50
2023-10-07T04:19:09.089Z,29.60
2023-10-07T04:21:17.302Z,29.60
2023-10-07T04:23:26.928Z,29.70
2023-10-07T04:25:42.089Z,29.80
2023-10-07T04:27:55.731Z,29.80
2023-10-07T04:30:05.752Z,29.80
2023-10-07T04:32:23.243Z,29.80
2023-10-07T04:34:35.774Z,29.80
2023-10-07T04:37:04.161Z,29.80
2023-10-07T04:39:20.281Z,29.80
2023-10-07T04:41:38.621Z,29.70
2023-10-07T04:43:52.314Z,29.70
2023-10-07T04:46:09.154Z,29.70
2023-10-07T04:48:26.939Z,29.70
2023-10-07T04:50:39.708Z,29.70
2023-10-07T04:52:52.656Z,29.80
2023-10-07T04:55:00.928Z,29.70
2023-10-07T04:57:19.318Z,29.70
2023-10-07T04:59:26.396Z,29.60
2023-10-07T05:01:36.299Z,29.60
2023-10-07T05:03:43.596Z,29.50
2023-10-07T05:05:51.220Z,29.50
2023-10-07T05:08:00.935Z,29.50
2023-10-07T05:10:10.979Z,29.50
2023-10-07T05:12:17.318Z,29.50
2023-10-07T05:14:27.022Z,29.50
2023-10-07T05:16:37.206Z,29.50
2023-10-07T05:18:45.237Z,29.50
2023-10-07T05:20:53.790Z,29.60
2023-10-07T05:23:03.111Z,29.60
2023-10-07T05:25:11.727Z,29.60
2023-10-07T05:27:20.908Z,29.60
2023-10-07T05:29:27.425Z,29.70
2023-10-07T05:31:36.682Z,29.70
2023-10-07T05:33:46.252Z,29.70
2023-10-07T05:35:54.196Z,29.80
2023-10-07T05:38:05.456Z,29.80
2023-10-07T05:40:16.105Z,29.80
2023-10-07T05:42:23.847Z,29.80
2023-10-07T05:44:32.249Z,29.90
2023-10-07T05:46:41.702Z,29.80
2023-10-07T05:48:49.692Z,29.80
2023-10-07T05:50:59.671Z,29.80
2023-10-07T05:53:07.322Z,29.90
2023-10-07T05:55:14.994Z,29.90
2023-10-07T05:57:23.585Z,29.90
2023-10-07T05:59:36.104Z,29.90
2023-10-07T06:01:45.993Z,30.00
2023-10-07T06:03:54.338Z,30.00
2023-10-07T06:06:02.148Z,30.00
2023-10-07T06:08:13.165Z,29.90
2023-10-07T06:10:19.967Z,29.90
2023-10-07T06:12:27.921Z,29.90
2023-10-07T06:14:37.730Z,29.90
2023-10-07T06:16:47.085Z,29.90
2023-10-07T06:18:54.785Z,29.80
2023-10-07T06:21:20.118Z,29.90
2023-10-07T06:23:27.786Z,29.80
2023-10-07T06:25:39.511Z,29.80
2023-10-07T06:27:47.323Z,29.80
2023-10-07T06:29:57.349Z,29.80
2023-10-07T06:32:24.627Z,29.80
2023-10-07T06:34:35.139Z,29.80
2023-10-07T06:36:43.359Z,29.90
2023-10-07T06:38:53.817Z,29.90
2023-10-07T06:41:01.601Z,29.90
2023-10-07T06:43:11.366Z,30.00
2023-10-07T06:45:20.275Z,30.00
2023-10-07T06:47:31.797Z,30.00
2023-10-07T06:49:41.836Z,30.10
2023-10-07T06:51:53.030Z,30.10
2023-10-07T06:54:06.188Z,30.20
2023-10-07T06:56:16.068Z,30.30
2023-10-07T06:58:25.018Z,30.30
2023-10-07T07:00:49.366Z,30.40
2023-10-07T07:05:25.460Z,30.70
2023-10-07T07:07:39.914Z,30.80
2023-10-07T07:10:00.741Z,30.90
2023-10-07T07:12:11.533Z,31.00
2023-10-07T07:14:19.152Z,31.10
2023-10-07T07:28:00.438Z,31.00
2023-10-07T07:30:07.511Z,31.10
2023-10-07T07:32:19.620Z,31.10
2023-10-07T07:34:29.187Z,31.20
2023-10-07T07:36:42.149Z,31.20
2023-10-07T07:38:49.611Z,31.20
2023-10-07T07:41:07.304Z,31.20
2023-10-07T07:43:17.543Z,31.20
2023-10-07T07:45:30.058Z,31.20
2023-10-07T07:47:38.921Z,31.20
2023-10-07T07:49:46.557Z,31.30
2023-10-07T07:51:55.743Z,31.40
2023-10-07T07:54:04.362Z,31.40
2023-10-07T07:56:15.016Z,31.40
2023-10-07T07:58:26.631Z,31.50
2023-10-07T08:00:34.526Z,31.50
2023-10-07T08:02:44.208Z,31.40
2023-10-07T08:04:52.422Z,31.30
2023-10-07T08:07:06.331Z,31.20
2023-10-07T08:09:14.038Z,31.10
2023-10-07T08:11:21.902Z,31.10
2023-10-07T08:13:31.832Z,31.20
2023-10-07T08:15:43.883Z,31.30
2023-10-07T08:17:54.721Z,31.40
2023-10-07T08:20:10.516Z,31.40
2023-10-07T08:22:21.061Z,31.50
2023-10-07T08:24:33.465Z,31.60
2023-10-07T08:26:43.747Z,31.60
2023-10-07T08:29:03.123Z,31.60
2023-10-07T08:31:16.340Z,31.70
2023-10-07T08:33:25.467Z,31.70
2023-10-07T08:35:36.918Z,31.70
2023-10-07T08:37:48.172Z,31.80
2023-10-07T08:39:59.239Z,31.80
2023-10-07T08:42:15.008Z,31.80
2023-10-07T08:44:31.834Z,31.70
2023-10-07T08:46:41.825Z,31.60
2023-10-07T08:49:00.064Z,31.40
2023-10-07T08:51:16.450Z,31.30
2023-10-07T08:53:26.116Z,31.20
2023-10-07T08:55:36.087Z,31.00
2023-10-07T08:57:49.734Z,30.90
2023-10-07T09:00:02.115Z,30.80
2023-10-07T09:02:15.193Z,30.60
2023-10-07T09:04:23.924Z,30.50
2023-10-07T09:06:35.827Z,30.40
2023-10-07T09:08:44.081Z,30.40
2023-10-07T09:10:52.050Z,30.30
2023-10-07T09:13:06.999Z,30.20
2023-10-07T09:15:23.669Z,30.20
2023-10-07T09:17:32.426Z,30.10
2023-10-07T09:19:42.032Z,30.10
2023-10-07T09:21:49.673Z,29.90
2023-10-07T09:24:02.093Z,29.90
2023-10-07T09:26:23.994Z,29.70
2023-10-07T09:28:33.620Z,29.60
2023-10-07T09:30:47.423Z,29.40
2023-10-07T09:32:58.729Z,29.20
2023-10-07T09:35:22.369Z,29.10
2023-10-07T09:37:34.584Z,29.00
2023-10-07T09:39:46.851Z,28.90
2023-10-07T09:42:05.571Z,28.80
2023-10-07T09:44:25.406Z,28.80
2023-10-07T09:46:42.633Z,28.70
2023-10-07T09:48:54.033Z,28.60
2023-10-07T09:51:03.003Z,28.60
2023-10-07T09:53:27.241Z,28.50
2023-10-07T09:55:50.191Z,28.40
2023-10-07T09:58:10.960Z,28.50
2023-10-07T10:00:42.629Z,28.50
2023-10-07T10:03:08.493Z,28.40
2023-10-07T10:05:37.438Z,28.40
2023-10-07T10:08:13.573Z,28.40
2023-10-07T10:10:32.409Z,28.40
2023-10-07T10:12:58.894Z,28.30
2023-10-07T10:15:31.207Z,28.20
2023-10-07T10:17:41.763Z,28.20
2023-10-07T10:19:50.280Z,28.20
2023-10-07T10:21:58.346Z,28.10
2023-10-07T10:24:06.431Z,28.10
2023-10-07T10:26:26.877Z,28.10
2023-10-07T10:28:39.747Z,28.00
2023-10-07T10:30:52.619Z,27.80
2023-10-07T10:33:09.636Z,27.80
2023-10-07T10:35:28.063Z,27.80
2023-10-07T10:37:37.096Z,27.70
2023-10-07T10:39:45.028Z,27.80
2023-10-07T10:41:53.595Z,27.80
2023-10-07T10:44:12.753Z,27.80
2023-10-07T10:46:21.050Z,27.80
2023-10-07T10:48:33.292Z,27.80
2023-10-07T10:50:42.905Z,27.80
2023-10-07T10:52:51.410Z,27.80
2023-10-07T10:54:58.956Z,27.70
2023-10-07T10:57:09.992Z,27.60
2023-10-07T10:59:16.967Z,27.50
2023-10-07T11:01:25.187Z,27.50
2023-10-07T11:03:34.417Z,27.40
2023-10-07T11:05:44.816Z,27.40
2023-10-07T11:07:53.761Z,27.30
2023-10-07T11:10:01.836Z,27.30
2023-10-07T11:12:15.242Z,27.30
2023-10-07T11:14:23.709Z,27.20
2023-10-07T11:16:32.956Z,27.20
2023-10-07T11:18:40.865Z,27.20
2023-10-07T11:20:51.457Z,27.20
2023-10-07T11:23:01.405Z,27.20
2023-10-07T11:25:16.682Z,27.20
2023-10-07T11:27:26.117Z,27.20
2023-10-07T11:29:34.673Z,27.10
2023-10-07T11:31:43.659Z,27.10
2023-10-07T11:33:55.703Z,27.00
2023-10-07T11:36:05.917Z,27.00
2023-10-07T11:38:14.361Z,26.90
2023-10-07T11:40:23.550Z,26.90
2023-10-07T11:42:31.284Z,27.00
2023-10-07T11:44:39.371Z,27.00
2023-10-07T11:46:47.728Z,27.00
2023-10-07T11:48:55.718Z,27.10
2023-10-07T11:51:06.249Z,27.20
2023-10-07T11:53:13.538Z,27.20
2023-10-07T11:55:22.384Z,27.20
2023-10-07T11:57:30.525Z,27.30
2023-10-07T11:59:43.552Z,27.40
2023-10-07T12:01:52.322Z,27.40
2023-10-07T12:04:00.251Z,27.40
2023-10-07T12:06:10.963Z,27.40
2023-10-07T12:08:18.803Z,27.40
2023-10-07T12:10:26.480Z,27.40
2023-10-07T12:12:35.226Z,27.40
2023-10-07T12:14:43.035Z,27.40
2023-10-07T12:16:51.529Z,27.50
2023-10-07T12:19:00.404Z,27.50
2023-10-07T12:21:14.301Z,27.40
2023-10-07T12:23:21.977Z,27.30
2023-10-07T12:25:30.972Z,27.30
2023-10-07T12:27:39.697Z,27.20
2023-10-07T12:29:48.000Z,27.10
2023-10-07T12:31:55.630Z,27.10
2023-10-07T12:34:03.416Z,27.00
2023-10-07T12:36:20.850Z,27.00
2023-10-07T12:38:29.140Z,27.00
2023-10-07T12:40:36.500Z,27.00
2023-10-07T12:42:45.668Z,27.10
2023-10-07T12:44:53.278Z,27.10
2023-10-07T12:47:02.359Z,27.10
2023-10-07T12:49:13.373Z,27.10
2023-10-07T12:51:22.293Z,27.10
2023-10-07T12:53:30.233Z,27.10
2023-10-07T12:55:38.081Z,27.10
2023-10-07T12:57:45.642Z,27.00
2023-10-07T12:59:54.658Z,27.00
2023-10-07T13:02:05.425Z,27.00
2023-10-07T13:04:14.306Z,26.90
2023-10-07T13:06:26.039Z,26.90
2023-10-07T13:08:33.796Z,26.90
2023-10-07T13:10:41.681Z,26.80
2023-10-07T13:12:52.010Z,26.80
2023-10-07T13:14:59.684Z,26.80
2023-10-07T13:17:07.576Z,26.70
2023-10-07T13:19:16.187Z,26.70
2023-10-07T13:21:27.657Z,26.70
2023-10-07T13:23:40.791Z,26.60
2023-10-07T13:25:48.392Z,26.60
2023-10-07T13:27:57.424Z,26.60
2023-10-07T13:30:07.647Z,26.60
2023-10-07T13:32:16.184Z,26.60
2023-10-07T13:34:23.955Z,26.60
2023-10-07T13:36:33.195Z,26.60
2023-10-07T13:38:41.233Z,26.50
2023-10-07T13:40:48.681Z,26.50
2023-10-07T13:42:57.355Z,26.50
2023-10-07T13:45:10.578Z,26.50
2023-10-07T13:47:19.733Z,26.50
2023-10-07T13:49:27.238Z,26.50
2023-10-07T13:51:40.270Z,26.50
2023-10-07T13:54:15.231Z,26.50
2023-10-07T13:56:37.070Z,26.50
2023-10-07T13:58:44.295Z,26.50
2023-10-07T14:00:54.280Z,26.40
2023-10-07T14:03:01.967Z,26.50
2023-10-07T14:05:12.847Z,26.50
2023-10-07T14:07:21.998Z,26.50
2023-10-07T14:09:33.630Z,26.50
2023-10-07T14:11:41.773Z,26.50
2023-10-07T14:13:50.882Z,26.40
2023-10-07T14:16:14.035Z,26.40
2023-10-07T14:18:30.215Z,26.30
2023-10-07T14:20:38.650Z,26.30
2023-10-07T14:22:48.959Z,26.30
2023-10-07T14:24:56.669Z,26.30
2023-10-07T14:27:05.784Z,26.30
2023-10-07T14:29:11.865Z,26.40
2023-10-07T14:31:22.957Z,26.30
2023-10-07T14:33:30.704Z,26.30
2023-10-07T14:35:42.569Z,26.30
2023-10-07T14:37:51.954Z,26.30
2023-10-07T14:40:02.740Z,26.30
2023-10-07T14:42:12.848Z,26.30
2023-10-07T14:44:24.074Z,26.30
2023-10-07T14:46:31.888Z,26.20
2023-10-07T14:48:39.837Z,26.20
2023-10-07T14:50:47.646Z,26.20
2023-10-07T14:52:57.425Z,26.20
2023-10-07T14:55:08.219Z,26.20
2023-10-07T14:57:19.821Z,26.20
2023-10-07T14:59:30.978Z,26.30
2023-10-07T15:01:42.792Z,26.20
2023-10-07T15:03:52.889Z,26.20
2023-10-07T15:06:12.136Z,26.20
2023-10-07T15:08:21.875Z,26.20
2023-10-07T15:10:31.976Z,26.20
2023-10-07T15:12:40.433Z,26.20
2023-10-07T15:14:48.298Z,26.20
2023-10-07T15:16:59.791Z,26.20
2023-10-07T15:19:08.022Z,26.20
2023-10-07T15:21:17.928Z,26.20
2023-10-07T15:23:27.449Z,26.20
2023-10-07T15:25:35.145Z,26.20
2023-10-07T15:27:42.958Z,26.20
2023-10-07T15:29:50.706Z,26.10
2023-10-07T15:31:57.271Z,26.10
2023-10-07T15:34:06.709Z,26.20
2023-10-07T15:36:14.445Z,26.20
2023-10-07T15:38:22.165Z,26.10
2023-10-07T15:40:32.761Z,26.10
2023-10-07T15:42:42.605Z,26.10
2023-10-07T15:44:50.434Z,26.10
2023-10-07T15:46:57.983Z,26.10
2023-10-07T15:49:13.074Z,26.10
2023-10-07T15:51:21.054Z,26.10
2023-10-07T15:53:31.701Z,26.10
2023-10-07T15:55:40.844Z,26.10
2023-10-07T15:57:48.880Z,26.10
2023-10-07T15:59:56.369Z,26.10
2023-10-07T16:02:07.620Z,26.10
2023-10-07T16:04:15.972Z,26.10
2023-10-07T16:06:25.048Z,26.10
2023-10-07T16:08:32.574Z,26.00
2023-10-07T16:10:44.686Z,26.00
2023-10-07T16:12:51.160Z,26.00
2023-10-07T16:15:00.125Z,26.00
2023-10-07T16:17:08.088Z,26.00
2023-10-07T16:19:16.263Z,26.00
2023-10-07T16:21:22.437Z,26.10
2023-10-07T16:23:32.137Z,26.10
2023-10-07T16:25:41.156Z,26.10
2023-10-07T16:27:50.837Z,26.10
2023-10-07T16:29:58.544Z,26.10
2023-10-07T16:32:07.848Z,26.10
2023-10-07T16:34:15.767Z,26.10
2023-10-07T16:36:23.287Z,26.10
2023-10-07T16:38:34.121Z,26.10
2023-10-07T16:40:44.988Z,26.10
2023-10-07T16:42:54.543Z,26.10
2023-10-07T16:45:03.813Z,26.10
2023-10-07T16:47:11.577Z,26.20
2023-10-07T16:49:19.144Z,26.20
2023-10-07T16:51:26.928Z,26.20
2023-10-07T16:53:33.353Z,26.20
2023-10-07T16:55:40.994Z,26.20
2023-10-07T16:57:48.535Z,26.20
2023-10-07T16:59:57.855Z,26.20
2023-10-07T17:02:05.340Z,26.10
2023-10-07T17:04:13.284Z,26.20
2023-10-07T17:06:21.529Z,26.20
2023-10-07T17:08:28.377Z,26.10
2023-10-07T17:10:42.953Z,26.10
2023-10-07T17:12:50.741Z,26.10
2023-10-07T17:14:59.810Z,26.10
2023-10-07T17:17:07.717Z,26.10
2023-10-07T17:19:15.244Z,26.10
2023-10-07T17:21:23.648Z,26.10
2023-10-07T17:23:31.392Z,26.10
2023-10-07T17:25:39.904Z,26.10
2023-10-07T17:27:47.294Z,26.10
2023-10-07T17:29:55.051Z,26.00
2023-10-07T17:32:04.513Z,26.10
2023-10-07T17:34:12.192Z,26.10
2023-10-07T17:36:19.472Z,26.10
2023-10-07T17:38:27.373Z,26.10
2023-10-07T17:40:34.343Z,26.10
2023-10-07T17:42:42.090Z,26.00
2023-10-07T17:44:49.459Z,26.00
2023-10-07T17:46:58.051Z,26.00
2023-10-07T17:49:07.267Z,26.00
2023-10-07T17:51:15.222Z,26.00
2023-10-07T17:53:24.168Z,26.00
2023-10-07T17:55:32.454Z,26.00
2023-10-07T17:57:40.592Z,26.00
2023-10-07T17:59:48.196Z,26.00
2023-10-07T18:01:56.995Z,26.00
2023-10-07T18:04:06.949Z,26.10
2023-10-07T18:06:13.728Z,26.00
2023-10-07T18:08:21.446Z,26.00
2023-10-07T18:10:29.464Z,26.00
2023-10-07T18:12:37.633Z,26.00
2023-10-07T18:14:45.744Z,26.00
2023-10-07T18:16:54.464Z,26.00
2023-10-07T18:19:02.702Z,26.00
2023-10-07T18:21:11.682Z,26.00
2023-10-07T18:23:19.723Z,26.00
2023-10-07T18:25:27.273Z,26.00
2023-10-07T18:27:35.437Z,26.00
2023-10-07T18:29:43.631Z,26.00
2023-10-07T18:31:51.486Z,26.00
2023-10-07T18:33:59.005Z,26.00
2023-10-07T18:36:08.708Z,26.10
2023-10-07T18:38:20.118Z,26.10
2023-10-07T18:40:27.590Z,26.10
2023-10-07T18:42:37.539Z,26.10
2023-10-07T18:44:45.481Z,26.00
2023-10-07T18:46:53.648Z,26.10
2023-10-07T18:49:01.264Z,26.10
2023-10-07T18:51:13.268Z,26.00
2023-10-07T18:53:21.649Z,26.00
2023-10-07T18:55:30.400Z,26.00
2023-10-07T18:57:37.723Z,26.00
2023-10-07T18:59:45.506Z,26.00
2023-10-07T19:01:55.011Z,26.00
2023-10-07T19:04:02.973Z,26.10
2023-10-07T19:06:11.068Z,26.00
2023-10-07T19:08:18.952Z,26.00
2023-10-07T19:10:28.414Z,26.00
2023-10-07T19:12:37.068Z,26.00
2023-10-07T19:14:44.572Z,26.00
2023-10-07T19:16:52.870Z,26.00
2023-10-07T19:19:00.585Z,26.00
2023-10-07T19:21:10.906Z,26.00
2023-10-07T19:23:18.626Z,26.00
2023-10-07T19:25:28.517Z,26.00
2023-10-07T19:27:36.309Z,26.00
2023-10-07T19:29:44.140Z,26.00
2023-10-07T19:31:51.813Z,26.00
2023-10-07T19:33:59.949Z,26.00
2023-10-07T19:36:09.445Z,26.00
2023-10-07T19:38:17.492Z,25.90
2023-10-07T19:40:26.039Z,26.00
2023-10-07T19:42:35.486Z,26.00
2023-10-07T19:44:43.624Z,26.00
2023-10-07T19:46:51.188Z,25.90
2023-10-07T19:48:59.259Z,25.90
2023-10-07T19:51:07.799Z,25.90
2023-10-07T19:53:15.711Z,25.90
2023-10-07T19:55:23.505Z,25.90
2023-10-07T19:57:31.376Z,25.90
2023-10-07T19:59:40.823Z,25.90
2023-10-07T20:01:48.489Z,25.90
2023-10-07T20:03:58.912Z,26.00
2023-10-07T20:06:13.938Z,26.00
2023-10-07T20:08:21.625Z,26.00
2023-10-07T20:10:30.298Z,26.00
2023-10-07T20:12:36.495Z,26.00
2023-10-07T20:14:46.803Z,26.00
2023-10-07T20:16:54.442Z,26.00
2023-10-07T20:19:03.737Z,25.90
2023-10-07T20:21:11.922Z,25.90
2023-10-07T20:23:19.605Z,25.90
2023-10-07T20:25:28.198Z,25.80
2023-10-07T20:27:36.177Z,25.80
2023-10-07T20:29:45.991Z,25.80
2023-10-07T20:31:54.008Z,25.70
2023-10-07T20:34:01.740Z,25.80
2023-10-07T20:36:16.397Z,25.70
2023-10-07T20:38:24.361Z,25.80
2023-10-07T20:40:31.867Z,25.80
2023-10-07T20:42:39.712Z,25.80
2023-10-07T20:44:47.564Z,25.80
2023-10-07T20:46:55.198Z,25.80
2023-10-07T20:49:02.652Z,25.80
2023-10-07T20:51:12.253Z,25.80
2023-10-07T20:53:20.883Z,25.80
2023-10-07T20:55:28.494Z,25.80
2023-10-07T20:57:36.040Z,25.80
2023-10-07T20:59:43.688Z,25.90
2023-10-07T21:01:53.316Z,25.80
2023-10-07T21:04:01.157Z,25.80
2023-10-07T21:06:10.748Z,25.90
2023-10-07T21:08:18.079Z,25.90
2023-10-07T21:10:24.500Z,25.90
2023-10-07T21:12:32.046Z,25.90
2023-10-07T21:14:40.088Z,25.80
2023-10-07T21:16:47.135Z,25.80
2023-10-07T21:19:00.818Z,25.80
2023-10-07T21:21:13.843Z,25.80
2023-10-07T21:23:21.744Z,25.80
2023-10-07T21:25:27.872Z,25.80
2023-10-07T21:27:35.467Z,25.80
2023-10-07T21:29:44.820Z,25.80
2023-10-07T21:31:52.396Z,25.80
2023-10-07T21:34:01.714Z,25.80
2023-10-07T21:36:09.585Z,25.80
2023-10-07T21:38:17.855Z,25.80
2023-10-07T21:40:24.235Z,25.80
2023-10-07T21:42:31.645Z,25.80
2023-10-07T21:44:39.554Z,25.80
2023-10-07T21:46:47.016Z,25.90
2023-10-07T21:48:55.115Z,25.90
2023-10-07T21:51:12.411Z,25.90
2023-10-07T21:53:20.310Z,25.90
2023-10-07T21:55:31.268Z,25.90
2023-10-07T21:57:38.890Z,25.90
2023-10-07T21:59:46.458Z,25.90
2023-10-07T22:01:55.488Z,25.90
2023-10-07T22:04:03.209Z,25.90
2023-10-07T22:06:15.529Z,25.90
2023-10-07T22:08:23.806Z,26.00
2023-10-07T22:10:35.379Z,25.90
2023-10-07T22:12:45.141Z,26.00
2023-10-07T22:14:52.686Z,26.00
2023-10-07T22:17:00.329Z,26.00
2023-10-07T22:19:08.969Z,26.00
2023-10-07T22:21:18.317Z,25.90
2023-10-07T22:23:29.277Z,25.80
2023-10-07T22:25:37.251Z,25.80
2023-10-07T22:27:46.191Z,25.70
2023-10-07T22:29:53.899Z,25.60
2023-10-07T22:32:02.479Z,25.70
2023-10-07T22:34:10.420Z,25.70
2023-10-07T22:36:24.168Z,25.70
2023-10-07T22:38:35.212Z,25.70
2023-10-07T22:40:49.493Z,25.70
2023-10-07T22:42:56.191Z,25.70
2023-10-07T22:45:12.357Z,25.70
2023-10-07T22:47:19.869Z,25.70
2023-10-07T22:49:29.427Z,25.70
2023-10-07T22:51:42.176Z,25.80
2023-10-07T22:53:52.072Z,25.70
2023-10-07T22:56:00.235Z,25.80
2023-10-07T22:58:08.687Z,25.70
2023-10-07T23:00:21.368Z,25.80
2023-10-07T23:02:32.132Z,25.70
2023-10-07T23:04:41.668Z,25.80
2023-10-07T23:07:02.408Z,25.80
2023-10-07T23:09:18.641Z,25.80
2023-10-07T23:11:27.238Z,25.80
2023-10-07T23:13:35.980Z,25.90
2023-10-07T23:15:43.908Z,25.90
2023-10-07T23:17:54.021Z,25.90
2023-10-07T23:20:09.421Z,25.90
2023-10-07T23:22:25.364Z,25.90
2023-10-07T23:24:55.049Z,25.90
2023-10-07T23:27:02.394Z,25.90
2023-10-07T23:29:11.744Z,25.90
2023-10-07T23:31:38.886Z,25.90
2023-10-07T23:33:46.822Z,25.90
2023-10-07T23:35:57.401Z,25.90
2023-10-07T23:38:11.179Z,25.90
2023-10-07T23:40:32.157Z,26.00
2023-10-07T23:42:40.018Z,26.00
2023-10-07T23:44:47.658Z,26.00
2023-10-07T23:46:54.153Z,26.00
2023-10-07T23:49:08.319Z,26.00
2023-10-07T23:51:21.164Z,26.00
2023-10-07T23:53:33.077Z,26.00
2023-10-07T23:55:44.260Z,26.00
2023-10-07T23:57:58.353Z,26.00
